sensor_id;sensor_type;location;lat;lon;timestamp;pressure;altitude;pressure_sealevel;temperature;humidity
5298;BME280;14738;42.668;23.250;2023-05-27T00:00:01;48410.16;;;-141.90;100.00
5298;BME280;14738;42.668;23.250;2023-05-27T00:02:27;48408.16;;;-141.90;100.00
5298;BME280;14738;42.668;23.250;2023-05-27T00:04:52;48406.19;;;-141.90;100.00
5298;BME280;14738;42.668;23.250;2023-05-27T00:07:18;48418.09;;;-141.90;100.00
5298;BME280;14738;42.668;23.250;2023-05-27T00:09:43;48414.13;;;-141.90;100.00
5298;BME280;14738;42.668;23.250;2023-05-27T00:12:09;48418.09;;;-141.90;100.00
5298;BME280;14738;42.668;23.250;2023-05-27T00:14:35;48396.25;;;-141.90;100.00
5298;BME280;14738;42.668;23.250;2023-05-27T00:17:00;48424.06;;;-141.90;100.00
5298;BME280;14738;42.668;23.250;2023-05-27T00:19:27;48402.22;;;-141.90;100.00
5298;BME280;14738;42.668;23.250;2023-05-27T00:21:55;48433.97;;;-141.90;100.00
5298;BME280;14738;42.668;23.250;2023-05-27T00:24:21;48396.25;;;-141.90;100.00
5298;BME280;14738;42.668;23.250;2023-05-27T00:26:46;48394.28;;;-141.90;100.00
5298;BME280;14738;42.668;23.250;2023-05-27T00:29:13;48404.19;;;-141.90;100.00
5298;BME280;14738;42.668;23.250;2023-05-27T00:31:38;48428.03;;;-141.90;100.00
5298;BME280;14738;42.668;23.250;2023-05-27T00:34:03;48422.06;;;-141.90;100.00
5298;BME280;14738;42.668;23.250;2023-05-27T00:36:29;48437.94;;;-141.90;100.00
5298;BME280;14738;42.668;23.250;2023-05-27T00:38:57;48426.03;;;-141.90;100.00
5298;BME280;14738;42.668;23.250;2023-05-27T00:41:22;48430.00;;;-141.90;100.00
5298;BME280;14738;42.668;23.250;2023-05-27T00:43:48;48418.09;;;-141.90;100.00
5298;BME280;14738;42.668;23.250;2023-05-27T00:46:14;48412.13;;;-141.90;100.00
5298;BME280;14738;42.668;23.250;2023-05-27T00:48:40;48390.31;;;-141.90;100.00
5298;BME280;14738;42.668;23.250;2023-05-27T00:51:06;48378.38;;;-141.90;100.00
5298;BME280;14738;42.668;23.250;2023-05-27T00:53:39;48426.03;;;-141.90;100.00
5298;BME280;14738;42.668;23.250;2023-05-27T00:56:11;48424.06;;;-141.90;100.00
5298;BME280;14738;42.668;23.250;2023-05-27T00:58:38;48439.94;;;-141.90;100.00
5298;BME280;14738;42.668;23.250;2023-05-27T01:01:04;48402.22;;;-141.90;100.00
5298;BME280;14738;42.668;23.250;2023-05-27T01:03:30;48408.16;;;-141.90;100.00
5298;BME280;14738;42.668;23.250;2023-05-27T01:11:42;48396.25;;;-141.90;100.00
5298;BME280;14738;42.668;23.250;2023-05-27T01:14:11;48426.03;;;-141.90;100.00
5298;BME280;14738;42.668;23.250;2023-05-27T01:16:38;48422.06;;;-141.90;100.00
5298;BME280;14738;42.668;23.250;2023-05-27T01:19:13;48398.25;;;-141.90;100.00
5298;BME280;14738;42.668;23.250;2023-05-27T01:21:40;48398.25;;;-141.90;100.00
5298;BME280;14738;42.668;23.250;2023-05-27T01:24:10;48426.03;;;-141.90;100.00
5298;BME280;14738;42.668;23.250;2023-05-27T01:26:36;48422.06;;;-141.90;100.00
5298;BME280;14738;42.668;23.250;2023-05-27T01:29:02;48398.25;;;-141.90;100.00
5298;BME280;14738;42.668;23.250;2023-05-27T01:31:54;48394.28;;;-141.90;100.00
5298;BME280;14738;42.668;23.250;2023-05-27T01:34:25;48422.06;;;-141.90;100.00
5298;BME280;14738;42.668;23.250;2023-05-27T01:36:58;48386.34;;;-141.90;100.00
5298;BME280;14738;42.668;23.250;2023-05-27T01:39:25;48412.13;;;-141.90;100.00
5298;BME280;14738;42.668;23.250;2023-05-27T01:41:52;48406.19;;;-141.90;100.00
5298;BME280;14738;42.668;23.250;2023-05-27T01:44:18;48426.03;;;-141.90;100.00
5298;BME280;14738;42.668;23.250;2023-05-27T01:46:44;48433.97;;;-141.90;100.00
5298;BME280;14738;42.668;23.250;2023-05-27T01:49:10;48416.09;;;-141.90;100.00
5298;BME280;14738;42.668;23.250;2023-05-27T01:51:35;48416.09;;;-141.90;100.00
5298;BME280;14738;42.668;23.250;2023-05-27T01:54:02;48426.03;;;-141.90;100.00
5298;BME280;14738;42.668;23.250;2023-05-27T01:56:27;48398.25;;;-141.90;100.00
5298;BME280;14738;42.668;23.250;2023-05-27T01:58:54;48404.19;;;-141.90;100.00
5298;BME280;14738;42.668;23.250;2023-05-27T02:01:20;48408.16;;;-141.90;100.00
5298;BME280;14738;42.668;23.250;2023-05-27T02:03:47;48441.91;;;-141.90;100.00
5298;BME280;14738;42.668;23.250;2023-05-27T02:06:12;48370.44;;;-141.90;100.00
5298;BME280;14738;42.668;23.250;2023-05-27T02:08:38;48404.19;;;-141.90;100.00
5298;BME280;14738;42.668;23.250;2023-05-27T02:11:04;48418.09;;;-141.90;100.00
5298;BME280;14738;42.668;23.250;2023-05-27T02:13:29;48418.09;;;-141.90;100.00
5298;BME280;14738;42.668;23.250;2023-05-27T02:15:55;48408.16;;;-141.90;100.00
5298;BME280;14738;42.668;23.250;2023-05-27T02:18:20;48418.09;;;-141.90;100.00
5298;BME280;14738;42.668;23.250;2023-05-27T02:20:46;48422.06;;;-141.90;100.00
5298;BME280;14738;42.668;23.250;2023-05-27T02:23:12;48398.25;;;-141.90;100.00
5298;BME280;14738;42.668;23.250;2023-05-27T02:25:37;48374.41;;;-141.90;100.00
5298;BME280;14738;42.668;23.250;2023-05-27T02:28:03;48420.09;;;-141.90;100.00
5298;BME280;14738;42.668;23.250;2023-05-27T02:30:29;48418.09;;;-141.90;100.00
5298;BME280;14738;42.668;23.250;2023-05-27T02:32:56;48430.00;;;-141.90;100.00
5298;BME280;14738;42.668;23.250;2023-05-27T02:35:22;48378.38;;;-141.90;100.00
5298;BME280;14738;42.668;23.250;2023-05-27T02:37:48;48384.34;;;-141.90;100.00
5298;BME280;14738;42.668;23.250;2023-05-27T02:40:23;48406.19;;;-141.90;100.00
5298;BME280;14738;42.668;23.250;2023-05-27T02:42:49;48428.03;;;-141.90;100.00
5298;BME280;14738;42.668;23.250;2023-05-27T02:45:14;48404.19;;;-141.90;100.00
5298;BME280;14738;42.668;23.250;2023-05-27T02:47:40;48412.13;;;-141.90;100.00
5298;BME280;14738;42.668;23.250;2023-05-27T02:50:05;48378.38;;;-141.90;100.00
5298;BME280;14738;42.668;23.250;2023-05-27T02:52:31;48437.94;;;-141.90;100.00
5298;BME280;14738;42.668;23.250;2023-05-27T02:54:56;48402.22;;;-141.90;100.00
5298;BME280;14738;42.668;23.250;2023-05-27T02:57:22;48422.06;;;-141.90;100.00
5298;BME280;14738;42.668;23.250;2023-05-27T02:59:47;48406.19;;;-141.90;100.00
5298;BME280;14738;42.668;23.250;2023-05-27T03:02:13;48398.25;;;-141.90;100.00
5298;BME280;14738;42.668;23.250;2023-05-27T03:04:39;48432.00;;;-141.90;100.00
5298;BME280;14738;42.668;23.250;2023-05-27T03:07:04;48418.09;;;-141.90;100.00
5298;BME280;14738;42.668;23.250;2023-05-27T03:09:30;48410.16;;;-141.90;100.00
5298;BME280;14738;42.668;23.250;2023-05-27T03:11:55;48416.09;;;-141.90;100.00
5298;BME280;14738;42.668;23.250;2023-05-27T03:14:21;48398.25;;;-141.90;100.00
5298;BME280;14738;42.668;23.250;2023-05-27T03:16:46;48418.09;;;-141.90;100.00
5298;BME280;14738;42.668;23.250;2023-05-27T03:19:12;48428.03;;;-141.90;100.00
5298;BME280;14738;42.668;23.250;2023-05-27T03:21:37;48430.00;;;-141.90;100.00
5298;BME280;14738;42.668;23.250;2023-05-27T03:24:02;48457.81;;;-141.90;100.00
5298;BME280;14738;42.668;23.250;2023-05-27T03:26:28;48465.75;;;-141.90;100.00
5298;BME280;14738;42.668;23.250;2023-05-27T03:28:53;48437.94;;;-141.90;100.00
5298;BME280;14738;42.668;23.250;2023-05-27T03:31:19;48430.00;;;-141.90;100.00
5298;BME280;14738;42.668;23.250;2023-05-27T03:33:44;48445.88;;;-141.90;100.00
5298;BME280;14738;42.668;23.250;2023-05-27T03:36:10;48426.03;;;-141.90;100.00
5298;BME280;14738;42.668;23.250;2023-05-27T03:38:35;48408.16;;;-141.90;100.00
5298;BME280;14738;42.668;23.250;2023-05-27T03:41:00;48422.06;;;-141.90;100.00
5298;BME280;14738;42.668;23.250;2023-05-27T03:43:26;48410.16;;;-141.90;100.00
5298;BME280;14738;42.668;23.250;2023-05-27T03:45:51;48412.13;;;-141.90;100.00
5298;BME280;14738;42.668;23.250;2023-05-27T03:48:17;48414.13;;;-141.90;100.00
5298;BME280;14738;42.668;23.250;2023-05-27T03:50:42;48410.16;;;-141.90;100.00
5298;BME280;14738;42.668;23.250;2023-05-27T03:53:08;48428.03;;;-141.90;100.00
5298;BME280;14738;42.668;23.250;2023-05-27T03:55:33;48408.16;;;-141.90;100.00
5298;BME280;14738;42.668;23.250;2023-05-27T03:57:59;48404.19;;;-141.90;100.00
5298;BME280;14738;42.668;23.250;2023-05-27T04:00:24;48364.50;;;-141.90;100.00
5298;BME280;14738;42.668;23.250;2023-05-27T04:02:50;48451.84;;;-141.90;100.00
5298;BME280;14738;42.668;23.250;2023-05-27T04:05:15;48404.19;;;-141.90;100.00
5298;BME280;14738;42.668;23.250;2023-05-27T04:07:41;48422.06;;;-141.90;100.00
5298;BME280;14738;42.668;23.250;2023-05-27T04:10:07;48408.16;;;-141.90;100.00
5298;BME280;14738;42.668;23.250;2023-05-27T04:12:33;48433.97;;;-141.90;100.00
5298;BME280;14738;42.668;23.250;2023-05-27T04:14:58;48418.09;;;-141.90;100.00
5298;BME280;14738;42.668;23.250;2023-05-27T04:17:24;48433.97;;;-141.90;100.00
5298;BME280;14738;42.668;23.250;2023-05-27T04:19:49;48455.81;;;-141.90;100.00
5298;BME280;14738;42.668;23.250;2023-05-27T04:22:15;48437.94;;;-141.90;100.00
5298;BME280;14738;42.668;23.250;2023-05-27T04:24:40;48422.06;;;-141.90;100.00
5298;BME280;14738;42.668;23.250;2023-05-27T04:27:06;48441.91;;;-141.90;100.00
5298;BME280;14738;42.668;23.250;2023-05-27T04:29:32;48410.16;;;-141.90;100.00
5298;BME280;14738;42.668;23.250;2023-05-27T04:31:58;48422.06;;;-141.90;100.00
5298;BME280;14738;42.668;23.250;2023-05-27T04:34:24;48433.97;;;-141.90;100.00
5298;BME280;14738;42.668;23.250;2023-05-27T04:36:49;48481.63;;;-141.90;100.00
5298;BME280;14738;42.668;23.250;2023-05-27T04:39:15;48511.41;;;-141.90;100.00
5298;BME280;14738;42.668;23.250;2023-05-27T04:41:41;48521.34;;;-141.90;100.00
5298;BME280;14738;42.668;23.250;2023-05-27T04:44:07;48565.00;;;-141.90;100.00
5298;BME280;14738;42.668;23.250;2023-05-27T04:46:32;48555.09;;;-141.90;100.00
5298;BME280;14738;42.668;23.250;2023-05-27T04:48:58;48511.41;;;-141.90;100.00
5298;BME280;14738;42.668;23.250;2023-05-27T04:51:24;48495.53;;;-141.90;100.00
5298;BME280;14738;42.668;23.250;2023-05-27T04:53:50;48457.81;;;-141.90;100.00
5298;BME280;14738;42.668;23.250;2023-05-27T04:56:16;48491.56;;;-141.90;100.00
5298;BME280;14738;42.668;23.250;2023-05-27T04:58:45;48457.81;;;-141.90;100.00
5298;BME280;14738;42.668;23.250;2023-05-27T05:01:14;48457.81;;;-141.90;100.00
5298;BME280;14738;42.668;23.250;2023-05-27T05:03:44;48473.69;;;-141.90;100.00
5298;BME280;14738;42.668;23.250;2023-05-27T05:06:19;48469.72;;;-141.90;100.00
5298;BME280;14738;42.668;23.250;2023-05-27T05:08:44;48469.72;;;-141.90;100.00
5298;BME280;14738;42.668;23.250;2023-05-27T05:11:10;48473.69;;;-141.90;100.00
5298;BME280;14738;42.668;23.250;2023-05-27T05:13:36;48497.50;;;-141.90;100.00
5298;BME280;14738;42.668;23.250;2023-05-27T05:16:01;48513.38;;;-141.90;100.00
5298;BME280;14738;42.668;23.250;2023-05-27T05:18:27;48493.53;;;-141.90;100.00
5298;BME280;14738;42.668;23.250;2023-05-27T05:20:52;48539.19;;;-141.90;100.00
5298;BME280;14738;42.668;23.250;2023-05-27T05:23:17;48507.44;;;-141.90;100.00
5298;BME280;14738;42.668;23.250;2023-05-27T05:25:43;48495.53;;;-141.90;100.00
5298;BME280;14738;42.668;23.250;2023-05-27T05:28:09;48469.72;;;-141.90;100.00
5298;BME280;14738;42.668;23.250;2023-05-27T05:30:34;48513.38;;;-141.90;100.00
5298;BME280;14738;42.668;23.250;2023-05-27T05:33:00;48489.56;;;-141.90;100.00
5298;BME280;14738;42.668;23.250;2023-05-27T05:35:25;48469.72;;;-141.90;100.00
5298;BME280;14738;42.668;23.250;2023-05-27T05:37:51;48469.72;;;-141.90;100.00
5298;BME280;14738;42.668;23.250;2023-05-27T05:40:16;48453.81;;;-141.90;100.00
5298;BME280;14738;42.668;23.250;2023-05-27T05:42:42;48453.81;;;-141.90;100.00
5298;BME280;14738;42.668;23.250;2023-05-27T05:45:07;48457.81;;;-141.90;100.00
5298;BME280;14738;42.668;23.250;2023-05-27T05:47:33;48483.59;;;-141.90;100.00
5298;BME280;14738;42.668;23.250;2023-05-27T05:49:58;48461.78;;;-141.90;100.00
5298;BME280;14738;42.668;23.250;2023-05-27T05:52:24;48471.69;;;-141.90;100.00
5298;BME280;14738;42.668;23.250;2023-05-27T05:54:49;48491.56;;;-141.90;100.00
5298;BME280;14738;42.668;23.250;2023-05-27T05:57:15;48471.69;;;-141.90;100.00
5298;BME280;14738;42.668;23.250;2023-05-27T05:59:40;48485.59;;;-141.90;100.00
5298;BME280;14738;42.668;23.250;2023-05-27T06:02:06;48433.97;;;-141.90;100.00
5298;BME280;14738;42.668;23.250;2023-05-27T06:04:31;48473.69;;;-141.90;100.00
5298;BME280;14738;42.668;23.250;2023-05-27T06:06:57;48485.59;;;-141.90;100.00
5298;BME280;14738;42.668;23.250;2023-05-27T06:09:22;48453.81;;;-141.90;100.00
5298;BME280;14738;42.668;23.250;2023-05-27T06:11:48;48457.81;;;-141.90;100.00
5298;BME280;14738;42.668;23.250;2023-05-27T06:14:13;48485.59;;;-141.90;100.00
5298;BME280;14738;42.668;23.250;2023-05-27T06:16:39;48499.50;;;-141.90;100.00
5298;BME280;14738;42.668;23.250;2023-05-27T06:19:05;48485.59;;;-141.90;100.00
5298;BME280;14738;42.668;23.250;2023-05-27T06:21:31;48511.41;;;-141.90;100.00
5298;BME280;14738;42.668;23.250;2023-05-27T06:23:58;48463.75;;;-141.90;100.00
5298;BME280;14738;42.668;23.250;2023-05-27T06:26:24;48461.78;;;-141.90;100.00
5298;BME280;14738;42.668;23.250;2023-05-27T06:28:50;48497.50;;;-141.90;100.00
5298;BME280;14738;42.668;23.250;2023-05-27T06:31:15;48517.34;;;-141.90;100.00
5298;BME280;14738;42.668;23.250;2023-05-27T06:33:41;48499.50;;;-141.90;100.00
5298;BME280;14738;42.668;23.250;2023-05-27T06:36:06;48479.63;;;-141.90;100.00
5298;BME280;14738;42.668;23.250;2023-05-27T06:38:32;48509.41;;;-141.90;100.00
5298;BME280;14738;42.668;23.250;2023-05-27T06:40:57;48483.59;;;-141.90;100.00
5298;BME280;14738;42.668;23.250;2023-05-27T06:43:23;48481.63;;;-141.90;100.00
5298;BME280;14738;42.668;23.250;2023-05-27T06:45:48;48485.59;;;-141.90;100.00
5298;BME280;14738;42.668;23.250;2023-05-27T06:48:14;48493.53;;;-141.90;100.00
5298;BME280;14738;42.668;23.250;2023-05-27T06:50:39;48489.56;;;-141.90;100.00
5298;BME280;14738;42.668;23.250;2023-05-27T06:53:05;48515.38;;;-141.90;100.00
5298;BME280;14738;42.668;23.250;2023-05-27T06:55:30;48485.59;;;-141.90;100.00
5298;BME280;14738;42.668;23.250;2023-05-27T06:57:56;48493.53;;;-141.90;100.00
5298;BME280;14738;42.668;23.250;2023-05-27T07:00:21;48511.41;;;-141.90;100.00
5298;BME280;14738;42.668;23.250;2023-05-27T07:02:47;48513.38;;;-141.90;100.00
5298;BME280;14738;42.668;23.250;2023-05-27T07:05:12;48487.56;;;-141.90;100.00
5298;BME280;14738;42.668;23.250;2023-05-27T07:07:38;48493.53;;;-141.90;100.00
5298;BME280;14738;42.668;23.250;2023-05-27T07:10:03;48541.19;;;-141.90;100.00
5298;BME280;14738;42.668;23.250;2023-05-27T07:12:29;48497.50;;;-141.90;100.00
5298;BME280;14738;42.668;23.250;2023-05-27T07:14:54;48477.66;;;-141.90;100.00
5298;BME280;14738;42.668;23.250;2023-05-27T07:17:19;48525.31;;;-141.90;100.00
5298;BME280;14738;42.668;23.250;2023-05-27T07:19:45;48519.34;;;-141.90;100.00
5298;BME280;14738;42.668;23.250;2023-05-27T07:22:10;48475.66;;;-141.90;100.00
5298;BME280;14738;42.668;23.250;2023-05-27T07:24:35;48497.50;;;-141.90;100.00
5298;BME280;14738;42.668;23.250;2023-05-27T07:27:01;48481.63;;;-141.90;100.00
5298;BME280;14738;42.668;23.250;2023-05-27T07:29:26;48473.69;;;-141.90;100.00
5298;BME280;14738;42.668;23.250;2023-05-27T07:31:52;48483.59;;;-141.90;100.00
5298;BME280;14738;42.668;23.250;2023-05-27T07:34:18;48503.47;;;-141.90;100.00
5298;BME280;14738;42.668;23.250;2023-05-27T07:36:43;48501.47;;;-141.90;100.00
5298;BME280;14738;42.668;23.250;2023-05-27T07:39:11;48517.34;;;-141.90;100.00
5298;BME280;14738;42.668;23.250;2023-05-27T07:41:37;48483.59;;;-141.90;100.00
5298;BME280;14738;42.668;23.250;2023-05-27T07:44:02;48521.34;;;-141.90;100.00
5298;BME280;14738;42.668;23.250;2023-05-27T07:46:28;48531.25;;;-141.90;100.00
5298;BME280;14738;42.668;23.250;2023-05-27T07:48:53;48501.47;;;-141.90;100.00
5298;BME280;14738;42.668;23.250;2023-05-27T07:51:19;48519.34;;;-141.90;100.00
5298;BME280;14738;42.668;23.250;2023-05-27T07:53:44;48517.34;;;-141.90;100.00
5298;BME280;14738;42.668;23.250;2023-05-27T07:56:10;48523.31;;;-141.90;100.00
5298;BME280;14738;42.668;23.250;2023-05-27T07:58:36;48511.41;;;-141.90;100.00
5298;BME280;14738;42.668;23.250;2023-05-27T08:01:01;48493.53;;;-141.90;100.00
5298;BME280;14738;42.668;23.250;2023-05-27T08:03:26;48481.63;;;-141.90;100.00
5298;BME280;14738;42.668;23.250;2023-05-27T08:05:52;48487.56;;;-141.90;100.00
5298;BME280;14738;42.668;23.250;2023-05-27T08:08:17;48473.69;;;-141.90;100.00
5298;BME280;14738;42.668;23.250;2023-05-27T08:10:43;48485.59;;;-141.90;100.00
5298;BME280;14738;42.668;23.250;2023-05-27T08:13:09;48509.41;;;-141.90;100.00
5298;BME280;14738;42.668;23.250;2023-05-27T08:15:35;48501.47;;;-141.90;100.00
5298;BME280;14738;42.668;23.250;2023-05-27T08:18:00;48483.59;;;-141.90;100.00
5298;BME280;14738;42.668;23.250;2023-05-27T08:20:27;48497.50;;;-141.90;100.00
5298;BME280;14738;42.668;23.250;2023-05-27T08:22:52;48491.56;;;-141.90;100.00
5298;BME280;14738;42.668;23.250;2023-05-27T08:25:18;48501.47;;;-141.90;100.00
5298;BME280;14738;42.668;23.250;2023-05-27T08:27:50;48517.34;;;-141.90;100.00
5298;BME280;14738;42.668;23.250;2023-05-27T08:30:16;48527.28;;;-141.90;100.00
5298;BME280;14738;42.668;23.250;2023-05-27T08:32:42;48529.28;;;-141.90;100.00
5298;BME280;14738;42.668;23.250;2023-05-27T08:35:09;48485.59;;;-141.90;100.00
5298;BME280;14738;42.668;23.250;2023-05-27T08:37:35;48477.66;;;-141.90;100.00
5298;BME280;14738;42.668;23.250;2023-05-27T08:40:03;48513.38;;;-141.90;100.00
5298;BME280;14738;42.668;23.250;2023-05-27T08:42:32;48477.66;;;-141.90;100.00
5298;BME280;14738;42.668;23.250;2023-05-27T08:44:58;48489.56;;;-141.90;100.00
5298;BME280;14738;42.668;23.250;2023-05-27T08:47:28;48517.34;;;-141.90;100.00
5298;BME280;14738;42.668;23.250;2023-05-27T08:49:54;48501.47;;;-141.90;100.00
5298;BME280;14738;42.668;23.250;2023-05-27T08:52:20;48481.63;;;-141.90;100.00
5298;BME280;14738;42.668;23.250;2023-05-27T08:54:47;48485.59;;;-141.90;100.00
5298;BME280;14738;42.668;23.250;2023-05-27T08:57:13;48507.44;;;-141.90;100.00
5298;BME280;14738;42.668;23.250;2023-05-27T08:59:41;48495.53;;;-141.90;100.00
5298;BME280;14738;42.668;23.250;2023-05-27T09:02:12;48461.78;;;-141.90;100.00
5298;BME280;14738;42.668;23.250;2023-05-27T09:04:39;48469.72;;;-141.90;100.00
5298;BME280;14738;42.668;23.250;2023-05-27T09:07:05;48469.72;;;-141.90;100.00
5298;BME280;14738;42.668;23.250;2023-05-27T09:09:31;48493.53;;;-141.90;100.00
5298;BME280;14738;42.668;23.250;2023-05-27T09:12:01;48493.53;;;-141.90;100.00
5298;BME280;14738;42.668;23.250;2023-05-27T09:14:27;48451.84;;;-141.90;100.00
5298;BME280;14738;42.668;23.250;2023-05-27T09:16:53;48493.53;;;-141.90;100.00
5298;BME280;14738;42.668;23.250;2023-05-27T09:19:19;48499.50;;;-141.90;100.00
5298;BME280;14738;42.668;23.250;2023-05-27T09:21:45;48493.53;;;-141.90;46.69
5298;BME280;14738;42.668;23.250;2023-05-27T09:24:11;48493.53;;;-141.90;47.39
5298;BME280;14738;42.668;23.250;2023-05-27T09:26:37;48473.69;;;-141.90;47.09
5298;BME280;14738;42.668;23.250;2023-05-27T09:29:08;48519.34;;;-141.90;46.48
5298;BME280;14738;42.668;23.250;2023-05-27T09:31:41;48491.56;;;-141.90;47.07
5298;BME280;14738;42.668;23.250;2023-05-27T09:34:16;48507.44;;;-141.90;46.26
5298;BME280;14738;42.668;23.250;2023-05-27T09:36:46;48501.47;;;-141.90;47.75
5298;BME280;14738;42.668;23.250;2023-05-27T09:39:18;48473.69;;;-141.90;47.03
5298;BME280;14738;42.668;23.250;2023-05-27T09:41:49;48489.56;;;-141.90;46.91
5298;BME280;14738;42.668;23.250;2023-05-27T09:44:15;48493.53;;;-141.90;46.09
5298;BME280;14738;42.668;23.250;2023-05-27T09:46:42;48495.53;;;-141.90;46.54
5298;BME280;14738;42.668;23.250;2023-05-27T09:49:09;48485.59;;;-141.90;45.66
5298;BME280;14738;42.668;23.250;2023-05-27T09:51:35;48501.47;;;-141.90;45.69
5298;BME280;14738;42.668;23.250;2023-05-27T09:54:03;48521.34;;;-141.90;44.87
5298;BME280;14738;42.668;23.250;2023-05-27T09:56:29;48465.75;;;-141.90;43.62
5298;BME280;14738;42.668;23.250;2023-05-27T09:58:56;48543.16;;;-141.90;43.80
5298;BME280;14738;42.668;23.250;2023-05-27T10:01:26;48513.38;;;-141.90;42.51
5298;BME280;14738;42.668;23.250;2023-05-27T10:03:56;48539.19;;;-141.90;42.96
5298;BME280;14738;42.668;23.250;2023-05-27T10:06:25;48565.00;;;-141.90;41.38
5298;BME280;14738;42.668;23.250;2023-05-27T10:09:01;48549.13;;;-141.90;40.25
5298;BME280;14738;42.668;23.250;2023-05-27T10:11:31;48563.03;;;-141.90;41.94
5298;BME280;14738;42.668;23.250;2023-05-27T10:13:57;48529.28;;;-141.90;40.92
5298;BME280;14738;42.668;23.250;2023-05-27T10:16:26;48537.22;;;-141.90;40.00
5298;BME280;14738;42.668;23.250;2023-05-27T10:18:56;48525.31;;;-141.90;40.29
5298;BME280;14738;42.668;23.250;2023-05-27T10:21:23;48563.03;;;-141.90;40.00
5298;BME280;14738;42.668;23.250;2023-05-27T10:24:00;48559.06;;;-141.90;39.46
5298;BME280;14738;42.668;23.250;2023-05-27T10:26:40;48539.19;;;-141.90;39.77
5298;BME280;14738;42.668;23.250;2023-05-27T10:29:15;48545.16;;;-141.90;39.66
5298;BME280;14738;42.668;23.250;2023-05-27T10:31:50;48537.22;;;-141.90;40.99
5298;BME280;14738;42.668;23.250;2023-05-27T10:34:17;48523.31;;;-141.90;40.34
5298;BME280;14738;42.668;23.250;2023-05-27T10:36:46;48513.38;;;-141.90;40.34
5298;BME280;14738;42.668;23.250;2023-05-27T10:39:12;48533.25;;;-141.90;40.82
5298;BME280;14738;42.668;23.250;2023-05-27T10:41:42;48517.34;;;-141.90;41.17
5298;BME280;14738;42.668;23.250;2023-05-27T10:44:08;48509.41;;;-141.90;41.26
5298;BME280;14738;42.668;23.250;2023-05-27T10:46:43;48565.00;;;-141.90;41.16
5298;BME280;14738;42.668;23.250;2023-05-27T10:49:10;48533.25;;;-141.90;41.54
5298;BME280;14738;42.668;23.250;2023-05-27T10:51:36;48561.03;;;-141.90;40.27
5298;BME280;14738;42.668;23.250;2023-05-27T10:54:05;48563.03;;;-141.90;38.65
5298;BME280;14738;42.668;23.250;2023-05-27T10:56:32;48592.81;;;-141.90;38.61
5298;BME280;14738;42.668;23.250;2023-05-27T10:59:00;48551.09;;;-141.90;38.70
5298;BME280;14738;42.668;23.250;2023-05-27T11:01:28;48549.13;;;-141.90;38.81
5298;BME280;14738;42.668;23.250;2023-05-27T11:03:53;48568.97;;;-141.90;38.85
5298;BME280;14738;42.668;23.250;2023-05-27T11:06:20;48555.09;;;-141.90;38.53
5298;BME280;14738;42.668;23.250;2023-05-27T11:08:46;48563.03;;;-141.90;38.42
5298;BME280;14738;42.668;23.250;2023-05-27T11:11:12;48563.03;;;-141.90;39.05
5298;BME280;14738;42.668;23.250;2023-05-27T11:13:42;48576.91;;;-141.90;38.80
5298;BME280;14738;42.668;23.250;2023-05-27T11:16:08;48567.00;;;-141.90;39.20
5298;BME280;14738;42.668;23.250;2023-05-27T11:18:34;48563.03;;;-141.90;39.02
5298;BME280;14738;42.668;23.250;2023-05-27T11:21:00;48547.13;;;-141.90;40.89
5298;BME280;14738;42.668;23.250;2023-05-27T11:23:41;48551.09;;;-141.90;40.59
5298;BME280;14738;42.668;23.250;2023-05-27T11:26:24;48549.13;;;-141.90;39.57
5298;BME280;14738;42.668;23.250;2023-05-27T11:28:51;48533.25;;;-141.90;41.06
5298;BME280;14738;42.668;23.250;2023-05-27T11:31:18;48515.38;;;-141.90;41.26
5298;BME280;14738;42.668;23.250;2023-05-27T11:33:47;48527.28;;;-141.90;40.94
5298;BME280;14738;42.668;23.250;2023-05-27T11:36:14;48529.28;;;-141.90;41.71
5298;BME280;14738;42.668;23.250;2023-05-27T11:38:54;48517.34;;;-141.90;40.72
5298;BME280;14738;42.668;23.250;2023-05-27T11:41:22;48541.19;;;-141.90;41.65
5298;BME280;14738;42.668;23.250;2023-05-27T11:43:55;48531.25;;;-141.90;40.48
5298;BME280;14738;42.668;23.250;2023-05-27T11:46:22;48513.38;;;-141.90;41.14
5298;BME280;14738;42.668;23.250;2023-05-27T11:48:50;48525.31;;;-141.90;40.89
5298;BME280;14738;42.668;23.250;2023-05-27T11:51:16;48565.00;;;-141.90;40.49
5298;BME280;14738;42.668;23.250;2023-05-27T11:53:45;48545.16;;;-141.90;39.75
5298;BME280;14738;42.668;23.250;2023-05-27T11:56:12;48537.22;;;-141.90;39.70
5298;BME280;14738;42.668;23.250;2023-05-27T11:58:37;48561.03;;;-141.90;39.22
5298;BME280;14738;42.668;23.250;2023-05-27T12:01:03;48537.22;;;-141.90;39.10
5298;BME280;14738;42.668;23.250;2023-05-27T12:03:30;48517.34;;;-141.90;38.25
5298;BME280;14738;42.668;23.250;2023-05-27T12:05:56;48517.34;;;-141.90;38.80
5298;BME280;14738;42.668;23.250;2023-05-27T12:08:22;48519.34;;;-141.90;40.05
5298;BME280;14738;42.668;23.250;2023-05-27T12:10:48;48527.28;;;-141.90;40.08
5298;BME280;14738;42.668;23.250;2023-05-27T12:13:19;48519.34;;;-141.90;40.46
5298;BME280;14738;42.668;23.250;2023-05-27T12:15:45;48523.31;;;-141.90;40.59
5298;BME280;14738;42.668;23.250;2023-05-27T12:18:11;48511.41;;;-141.90;40.52
5298;BME280;14738;42.668;23.250;2023-05-27T12:20:36;48511.41;;;-141.90;39.57
5298;BME280;14738;42.668;23.250;2023-05-27T12:23:02;48525.31;;;-141.90;40.16
5298;BME280;14738;42.668;23.250;2023-05-27T12:25:27;48503.47;;;-141.90;40.42
5298;BME280;14738;42.668;23.250;2023-05-27T12:27:53;48545.16;;;-141.90;39.02
5298;BME280;14738;42.668;23.250;2023-05-27T12:30:18;48549.13;;;-141.90;39.62
5298;BME280;14738;42.668;23.250;2023-05-27T12:32:44;48563.03;;;-141.90;37.90
5298;BME280;14738;42.668;23.250;2023-05-27T12:35:09;48523.31;;;-141.90;37.79